sensor_id;sensor_type;location;lat;lon;timestamp;P1;durP1;ratioP1;P2;durP2;ratioP2
51194;SDS011;37259;49.972;19.850;2024-01-30T00:00:28;28.7;;;17.3;;
51194;SDS011;37259;49.972;19.850;2024-01-30T00:01:28;28.7;;;17.3;;
51194;SDS011;37259;49.972;19.850;2024-01-30T00:02:28;28.7;;;17.3;;
51194;SDS011;37259;49.972;19.850;2024-01-30T00:03:28;28.7;;;17.3;;
51194;SDS011;37259;49.972;19.850;2024-01-30T00:04:28;28.7;;;17.3;;
51194;SDS011;37259;49.972;19.850;2024-01-30T00:05:28;35.2;;;18.8;;
51194;SDS011;37259;49.972;19.850;2024-01-30T00:06:28;35.2;;;18.8;;
51194;SDS011;37259;49.972;19.850;2024-01-30T00:07:29;35.2;;;18.8;;
51194;SDS011;37259;49.972;19.850;2024-01-30T00:08:28;35.2;;;18.8;;
51194;SDS011;37259;49.972;19.850;2024-01-30T00:09:28;35.2;;;18.8;;
51194;SDS011;37259;49.972;19.850;2024-01-30T00:10:28;35.2;;;18.8;;
51194;SDS011;37259;49.972;19.850;2024-01-30T00:11:28;35.2;;;18.8;;
51194;SDS011;37259;49.972;19.850;2024-01-30T00:12:28;35.2;;;18.8;;
51194;SDS011;37259;49.972;19.850;2024-01-30T00:13:28;35.2;;;18.8;;
51194;SDS011;37259;49.972;19.850;2024-01-30T00:14:28;35.2;;;18.8;;
51194;SDS011;37259;49.972;19.850;2024-01-30T00:15:28;35.2;;;18.8;;
51194;SDS011;37259;49.972;19.850;2024-01-30T00:16:28;35.2;;;18.8;;
51194;SDS011;37259;49.972;19.850;2024-01-30T00:17:28;35.2;;;18.8;;
51194;SDS011;37259;49.972;19.850;2024-01-30T00:18:28;35.2;;;18.8;;
51194;SDS011;37259;49.972;19.850;2024-01-30T00:19:28;35.2;;;18.8;;
51194;SDS011;37259;49.972;19.850;2024-01-30T00:20:28;35.2;;;18.8;;
51194;SDS011;37259;49.972;19.850;2024-01-30T00:21:28;35.2;;;18.8;;
51194;SDS011;37259;49.972;19.850;2024-01-30T00:22:28;35.2;;;18.8;;
51194;SDS011;37259;49.972;19.850;2024-01-30T00:23:28;35.2;;;18.8;;
51194;SDS011;37259;49.972;19.850;2024-01-30T00:24:28;35.2;;;18.8;;
51194;SDS011;37259;49.972;19.850;2024-01-30T00:25:28;35.2;;;18.8;;
51194;SDS011;37259;49.972;19.850;2024-01-30T00:26:28;35.2;;;18.8;;
51194;SDS011;37259;49.972;19.850;2024-01-30T00:27:28;35.2;;;18.8;;
51194;SDS011;37259;49.972;19.850;2024-01-30T00:28:28;35.2;;;18.8;;
51194;SDS011;37259;49.972;19.850;2024-01-30T00:29:28;35.2;;;18.8;;
51194;SDS011;37259;49.972;19.850;2024-01-30T00:30:28;35.2;;;18.8;;
51194;SDS011;37259;49.972;19.850;2024-01-30T00:31:28;35.2;;;18.8;;
51194;SDS011;37259;49.972;19.850;2024-01-30T00:32:28;35.2;;;18.8;;
51194;SDS011;37259;49.972;19.850;2024-01-30T00:33:28;35.2;;;18.8;;
51194;SDS011;37259;49.972;19.850;2024-01-30T00:34:28;35.2;;;18.8;;
51194;SDS011;37259;49.972;19.850;2024-01-30T00:35:28;28.5;;;16.9;;
51194;SDS011;37259;49.972;19.850;2024-01-30T00:36:28;28.5;;;16.9;;
51194;SDS011;37259;49.972;19.850;2024-01-30T00:37:28;28.5;;;16.9;;
51194;SDS011;37259;49.972;19.850;2024-01-30T00:38:28;28.5;;;16.9;;
51194;SDS011;37259;49.972;19.850;2024-01-30T00:39:28;28.5;;;16.9;;
51194;SDS011;37259;49.972;19.850;2024-01-30T00:40:28;28.5;;;16.9;;
51194;SDS011;37259;49.972;19.850;2024-01-30T00:41:28;28.5;;;16.9;;
51194;SDS011;37259;49.972;19.850;2024-01-30T00:42:28;28.5;;;16.9;;
51194;SDS011;37259;49.972;19.850;2024-01-30T00:43:28;28.5;;;16.9;;
51194;SDS011;37259;49.972;19.850;2024-01-30T00:44:28;28.5;;;16.9;;
51194;SDS011;37259;49.972;19.850;2024-01-30T00:45:28;28.5;;;16.9;;
51194;SDS011;37259;49.972;19.850;2024-01-30T00:46:28;28.5;;;16.9;;
51194;SDS011;37259;49.972;19.850;2024-01-30T00:47:28;28.5;;;16.9;;
51194;SDS011;37259;49.972;19.850;2024-01-30T00:48:28;28.5;;;16.9;;
51194;SDS011;37259;49.972;19.850;2024-01-30T00:49:28;28.5;;;16.9;;
51194;SDS011;37259;49.972;19.850;2024-01-30T00:50:28;28.5;;;16.9;;
51194;SDS011;37259;49.972;19.850;2024-01-30T00:51:28;28.5;;;16.9;;
51194;SDS011;37259;49.972;19.850;2024-01-30T00:52:28;28.5;;;16.9;;
51194;SDS011;37259;49.972;19.850;2024-01-30T00:53:28;28.5;;;16.9;;
51194;SDS011;37259;49.972;19.850;2024-01-30T00:54:28;28.5;;;16.9;;
51194;SDS011;37259;49.972;19.850;2024-01-30T00:55:28;28.5;;;16.9;;
51194;SDS011;37259;49.972;19.850;2024-01-30T00:56:28;28.5;;;16.9;;
51194;SDS011;37259;49.972;19.850;2024-01-30T00:57:28;28.5;;;16.9;;
51194;SDS011;37259;49.972;19.850;2024-01-30T00:58:28;28.5;;;16.9;;
51194;SDS011;37259;49.972;19.850;2024-01-30T00:59:28;28.5;;;16.9;;
51194;SDS011;37259;49.972;19.850;2024-01-30T01:00:28;28.5;;;16.9;;
51194;SDS011;37259;49.972;19.850;2024-01-30T01:01:28;28.5;;;16.9;;
51194;SDS011;37259;49.972;19.850;2024-01-30T01:02:28;28.5;;;16.9;;
51194;SDS011;37259;49.972;19.850;2024-01-30T01:03:28;28.5;;;16.9;;
51194;SDS011;37259;49.972;19.850;2024-01-30T01:04:28;28.5;;;16.9;;
51194;SDS011;37259;49.972;19.850;2024-01-30T01:05:28;33.6;;;20.9;;
51194;SDS011;37259;49.972;19.850;2024-01-30T01:06:28;33.6;;;20.9;;
51194;SDS011;37259;49.972;19.850;2024-01-30T01:07:28;33.6;;;20.9;;
51194;SDS011;37259;49.972;19.850;2024-01-30T01:08:28;33.6;;;20.9;;
51194;SDS011;37259;49.972;19.850;2024-01-30T01:09:28;33.6;;;20.9;;
51194;SDS011;37259;49.972;19.850;2024-01-30T01:10:28;33.6;;;20.9;;
51194;SDS011;37259;49.972;19.850;2024-01-30T01:11:28;33.6;;;20.9;;
51194;SDS011;37259;49.972;19.850;2024-01-30T01:12:28;33.6;;;20.9;;
51194;SDS011;37259;49.972;19.850;2024-01-30T01:13:28;33.6;;;20.9;;
51194;SDS011;37259;49.972;19.850;2024-01-30T01:14:28;33.6;;;20.9;;
51194;SDS011;37259;49.972;19.850;2024-01-30T01:15:28;33.6;;;20.9;;
51194;SDS011;37259;49.972;19.850;2024-01-30T01:16:28;33.6;;;20.9;;
51194;SDS011;37259;49.972;19.850;2024-01-30T01:17:28;33.6;;;20.9;;
51194;SDS011;37259;49.972;19.850;2024-01-30T01:18:28;33.6;;;20.9;;
51194;SDS011;37259;49.972;19.850;2024-01-30T01:19:28;33.6;;;20.9;;
51194;SDS011;37259;49.972;19.850;2024-01-30T01:20:28;33.6;;;20.9;;
51194;SDS011;37259;49.972;19.850;2024-01-30T01:21:28;33.6;;;20.9;;
51194;SDS011;37259;49.972;19.850;2024-01-30T01:22:28;33.6;;;20.9;;
51194;SDS011;37259;49.972;19.850;2024-01-30T01:23:28;33.6;;;20.9;;
51194;SDS011;37259;49.972;19.850;2024-01-30T01:24:28;33.6;;;20.9;;
51194;SDS011;37259;49.972;19.850;2024-01-30T01:25:28;33.6;;;20.9;;
51194;SDS011;37259;49.972;19.850;2024-01-30T01:26:28;33.6;;;20.9;;
51194;SDS011;37259;49.972;19.850;2024-01-30T01:27:28;33.6;;;20.9;;
51194;SDS011;37259;49.972;19.850;2024-01-30T01:28:28;33.6;;;20.9;;
51194;SDS011;37259;49.972;19.850;2024-01-30T01:29:28;33.6;;;20.9;;
51194;SDS011;37259;49.972;19.850;2024-01-30T01:30:28;33.6;;;20.9;;
51194;SDS011;37259;49.972;19.850;2024-01-30T01:31:28;33.6;;;20.9;;
51194;SDS011;37259;49.972;19.850;2024-01-30T01:32:28;33.6;;;20.9;;
51194;SDS011;37259;49.972;19.850;2024-01-30T01:33:28;33.6;;;20.9;;
51194;SDS011;37259;49.972;19.850;2024-01-30T01:34:28;33.6;;;20.9;;
51194;SDS011;37259;49.972;19.850;2024-01-30T01:35:28;29.7;;;20.3;;
51194;SDS011;37259;49.972;19.850;2024-01-30T01:36:28;29.7;;;20.3;;
51194;SDS011;37259;49.972;19.850;2024-01-30T01:37:28;29.7;;;20.3;;
51194;SDS011;37259;49.972;19.850;2024-01-30T01:38:28;29.7;;;20.3;;
51194;SDS011;37259;49.972;19.850;2024-01-30T01:39:28;29.7;;;20.3;;
51194;SDS011;37259;49.972;19.850;2024-01-30T01:40:28;29.7;;;20.3;;
51194;SDS011;37259;49.972;19.850;2024-01-30T01:41:29;29.7;;;20.3;;
51194;SDS011;37259;49.972;19.850;2024-01-30T01:42:28;29.7;;;20.3;;
51194;SDS011;37259;49.972;19.850;2024-01-30T01:43:28;29.7;;;20.3;;
51194;SDS011;37259;49.972;19.850;2024-01-30T01:44:28;29.7;;;20.3;;
51194;SDS011;37259;49.972;19.850;2024-01-30T01:45:28;29.7;;;20.3;;
51194;SDS011;37259;49.972;19.850;2024-01-30T01:46:30;29.7;;;20.3;;
51194;SDS011;37259;49.972;19.850;2024-01-30T01:47:28;29.7;;;20.3;;
51194;SDS011;37259;49.972;19.850;2024-01-30T01:48:28;29.7;;;20.3;;
51194;SDS011;37259;49.972;19.850;2024-01-30T01:49:28;29.7;;;20.3;;
51194;SDS011;37259;49.972;19.850;2024-01-30T01:50:28;29.7;;;20.3;;
51194;SDS011;37259;49.972;19.850;2024-01-30T01:51:28;29.7;;;20.3;;
51194;SDS011;37259;49.972;19.850;2024-01-30T01:52:28;29.7;;;20.3;;
51194;SDS011;37259;49.972;19.850;2024-01-30T01:53:28;29.7;;;20.3;;
51194;SDS011;37259;49.972;19.850;2024-01-30T01:54:28;29.7;;;20.3;;
51194;SDS011;37259;49.972;19.850;2024-01-30T01:55:28;29.7;;;20.3;;
51194;SDS011;37259;49.972;19.850;2024-01-30T01:56:28;29.7;;;20.3;;
51194;SDS011;37259;49.972;19.850;2024-01-30T01:57:28;29.7;;;20.3;;
51194;SDS011;37259;49.972;19.850;2024-01-30T01:58:28;29.7;;;20.3;;
51194;SDS011;37259;49.972;19.850;2024-01-30T01:59:28;29.7;;;20.3;;
51194;SDS011;37259;49.972;19.850;2024-01-30T02:00:28;29.7;;;20.3;;
51194;SDS011;37259;49.972;19.850;2024-01-30T02:01:28;29.7;;;20.3;;
51194;SDS011;37259;49.972;19.850;2024-01-30T02:02:28;29.7;;;20.3;;
51194;SDS011;37259;49.972;19.850;2024-01-30T02:03:28;29.7;;;20.3;;
51194;SDS011;37259;49.972;19.850;2024-01-30T02:04:28;29.7;;;20.3;;
51194;SDS011;37259;49.972;19.850;2024-01-30T02:05:28;31.6;;;19.4;;
51194;SDS011;37259;49.972;19.850;2024-01-30T02:06:28;31.6;;;19.4;;
51194;SDS011;37259;49.972;19.850;2024-01-30T02:07:28;31.6;;;19.4;;
51194;SDS011;37259;49.972;19.850;2024-01-30T02:08:28;31.6;;;19.4;;
51194;SDS011;37259;49.972;19.850;2024-01-30T02:09:28;31.6;;;19.4;;
51194;SDS011;37259;49.972;19.850;2024-01-30T02:10:28;31.6;;;19.4;;
51194;SDS011;37259;49.972;19.850;2024-01-30T02:11:28;31.6;;;19.4;;
51194;SDS011;37259;49.972;19.850;2024-01-30T02:12:28;31.6;;;19.4;;
51194;SDS011;37259;49.972;19.850;2024-01-30T02:13:28;31.6;;;19.4;;
51194;SDS011;37259;49.972;19.850;2024-01-30T02:14:28;31.6;;;19.4;;
51194;SDS011;37259;49.972;19.850;2024-01-30T02:15:28;31.6;;;19.4;;
51194;SDS011;37259;49.972;19.850;2024-01-30T02:16:28;31.6;;;19.4;;
51194;SDS011;37259;49.972;19.850;2024-01-30T02:17:28;31.6;;;19.4;;
51194;SDS011;37259;49.972;19.850;2024-01-30T02:18:28;31.6;;;19.4;;
51194;SDS011;37259;49.972;19.850;2024-01-30T02:19:28;31.6;;;19.4;;
51194;SDS011;37259;49.972;19.850;2024-01-30T02:20:28;31.6;;;19.4;;
51194;SDS011;37259;49.972;19.850;2024-01-30T02:21:28;31.6;;;19.4;;
51194;SDS011;37259;49.972;19.850;2024-01-30T02:22:28;31.6;;;19.4;;
51194;SDS011;37259;49.972;19.850;2024-01-30T02:23:28;31.6;;;19.4;;
51194;SDS011;37259;49.972;19.850;2024-01-30T02:24:28;31.6;;;19.4;;
51194;SDS011;37259;49.972;19.850;2024-01-30T02:25:32;31.6;;;19.4;;
51194;SDS011;37259;49.972;19.850;2024-01-30T02:26:28;31.6;;;19.4;;
51194;SDS011;37259;49.972;19.850;2024-01-30T02:27:28;31.6;;;19.4;;
51194;SDS011;37259;49.972;19.850;2024-01-30T02:28:28;31.6;;;19.4;;
51194;SDS011;37259;49.972;19.850;2024-01-30T02:29:28;31.6;;;19.4;;
51194;SDS011;37259;49.972;19.850;2024-01-30T02:30:28;31.6;;;19.4;;
51194;SDS011;37259;49.972;19.850;2024-01-30T02:31:28;31.6;;;19.4;;
51194;SDS011;37259;49.972;19.850;2024-01-30T02:32:28;31.6;;;19.4;;
51194;SDS011;37259;49.972;19.850;2024-01-30T02:33:28;31.6;;;19.4;;
51194;SDS011;37259;49.972;19.850;2024-01-30T02:34:28;36.3;;;18.9;;
51194;SDS011;37259;49.972;19.850;2024-01-30T02:35:28;36.3;;;18.9;;
51194;SDS011;37259;49.972;19.850;2024-01-30T02:36:28;36.3;;;18.9;;
51194;SDS011;37259;49.972;19.850;2024-01-30T02:37:28;36.3;;;18.9;;
51194;SDS011;37259;49.972;19.850;2024-01-30T02:38:28;36.3;;;18.9;;
51194;SDS011;37259;49.972;19.850;2024-01-30T02:39:28;36.3;;;18.9;;
51194;SDS011;37259;49.972;19.850;2024-01-30T02:40:28;36.3;;;18.9;;
51194;SDS011;37259;49.972;19.850;2024-01-30T02:41:28;36.3;;;18.9;;
51194;SDS011;37259;49.972;19.850;2024-01-30T02:42:28;36.3;;;18.9;;
51194;SDS011;37259;49.972;19.850;2024-01-30T02:43:28;36.3;;;18.9;;
51194;SDS011;37259;49.972;19.850;2024-01-30T02:44:28;36.3;;;18.9;;
51194;SDS011;37259;49.972;19.850;2024-01-30T02:45:28;36.3;;;18.9;;
51194;SDS011;37259;49.972;19.850;2024-01-30T02:46:28;36.3;;;18.9;;
51194;SDS011;37259;49.972;19.850;2024-01-30T02:47:28;36.3;;;18.9;;
51194;SDS011;37259;49.972;19.850;2024-01-30T02:48:28;36.3;;;18.9;;
51194;SDS011;37259;49.972;19.850;2024-01-30T02:49:28;36.3;;;18.9;;
51194;SDS011;37259;49.972;19.850;2024-01-30T02:50:28;36.3;;;18.9;;
51194;SDS011;37259;49.972;19.850;2024-01-30T02:51:28;36.3;;;18.9;;
51194;SDS011;37259;49.972;19.850;2024-01-30T02:52:28;36.3;;;18.9;;
51194;SDS011;37259;49.972;19.850;2024-01-30T02:53:28;36.3;;;18.9;;
51194;SDS011;37259;49.972;19.850;2024-01-30T02:54:28;36.3;;;18.9;;
51194;SDS011;37259;49.972;19.850;2024-01-30T02:55:28;36.3;;;18.9;;
51194;SDS011;37259;49.972;19.850;2024-01-30T02:56:28;36.3;;;18.9;;
51194;SDS011;37259;49.972;19.850;2024-01-30T02:57:28;36.3;;;18.9;;
51194;SDS011;37259;49.972;19.850;2024-01-30T02:58:28;36.3;;;18.9;;
51194;SDS011;37259;49.972;19.850;2024-01-30T02:59:28;36.3;;;18.9;;
51194;SDS011;37259;49.972;19.850;2024-01-30T03:00:28;36.3;;;18.9;;
51194;SDS011;37259;49.972;19.850;2024-01-30T03:01:28;36.3;;;18.9;;
51194;SDS011;37259;49.972;19.850;2024-01-30T03:02:28;36.3;;;18.9;;
51194;SDS011;37259;49.972;19.850;2024-01-30T03:03:28;36.3;;;18.9;;
51194;SDS011;37259;49.972;19.850;2024-01-30T03:04:28;25.4;;;19.4;;
51194;SDS011;37259;49.972;19.850;2024-01-30T03:05:28;25.4;;;19.4;;
51194;SDS011;37259;49.972;19.850;2024-01-30T03:06:28;25.4;;;19.4;;
51194;SDS011;37259;49.972;19.850;2024-01-30T03:07:28;25.4;;;19.4;;
51194;SDS011;37259;49.972;19.850;2024-01-30T03:08:28;25.4;;;19.4;;
51194;SDS011;37259;49.972;19.850;2024-01-30T03:09:28;25.4;;;19.4;;
51194;SDS011;37259;49.972;19.850;2024-01-30T03:10:28;25.4;;;19.4;;
51194;SDS011;37259;49.972;19.850;2024-01-30T03:11:28;25.4;;;19.4;;
51194;SDS011;37259;49.972;19.850;2024-01-30T03:12:28;25.4;;;19.4;;
51194;SDS011;37259;49.972;19.850;2024-01-30T03:13:28;25.4;;;19.4;;
51194;SDS011;37259;49.972;19.850;2024-01-30T03:14:30;25.4;;;19.4;;
51194;SDS011;37259;49.972;19.850;2024-01-30T03:15:28;25.4;;;19.4;;
51194;SDS011;37259;49.972;19.850;2024-01-30T03:16:28;25.4;;;19.4;;
51194;SDS011;37259;49.972;19.850;2024-01-30T03:17:28;25.4;;;19.4;;
51194;SDS011;37259;49.972;19.850;2024-01-30T03:18:28;25.4;;;19.4;;
51194;SDS011;37259;49.972;19.850;2024-01-30T03:19:28;25.4;;;19.4;;
51194;SDS011;37259;49.972;19.850;2024-01-30T03:20:28;25.4;;;19.4;;
51194;SDS011;37259;49.972;19.850;2024-01-30T03:21:28;25.4;;;19.4;;
51194;SDS011;37259;49.972;19.850;2024-01-30T03:22:28;25.4;;;19.4;;
51194;SDS011;37259;49.972;19.850;2024-01-30T03:23:28;25.4;;;19.4;;
51194;SDS011;37259;49.972;19.850;2024-01-30T03:24:28;25.4;;;19.4;;
51194;SDS011;37259;49.972;19.850;2024-01-30T03:25:28;25.4;;;19.4;;
51194;SDS011;37259;49.972;19.850;2024-01-30T03:26:28;25.4;;;19.4;;
51194;SDS011;37259;49.972;19.850;2024-01-30T03:27:28;25.4;;;19.4;;
51194;SDS011;37259;49.972;19.850;2024-01-30T03:28:28;25.4;;;19.4;;
51194;SDS011;37259;49.972;19.850;2024-01-30T03:29:28;25.4;;;19.4;;
51194;SDS011;37259;49.972;19.850;2024-01-30T03:30:28;25.4;;;19.4;;
51194;SDS011;37259;49.972;19.850;2024-01-30T03:31:28;25.4;;;19.4;;
51194;SDS011;37259;49.972;19.850;2024-01-30T03:32:28;25.4;;;19.4;;
51194;SDS011;37259;49.972;19.850;2024-01-30T03:33:28;25.4;;;19.4;;
51194;SDS011;37259;49.972;19.850;2024-01-30T03:34:28;30.6;;;19.6;;
51194;SDS011;37259;49.972;19.850;2024-01-30T03:35:28;30.6;;;19.6;;
51194;SDS011;37259;49.972;19.850;2024-01-30T03:36:28;30.6;;;19.6;;
51194;SDS011;37259;49.972;19.850;2024-01-30T03:37:28;30.6;;;19.6;;
51194;SDS011;37259;49.972;19.850;2024-01-30T03:38:28;30.6;;;19.6;;
51194;SDS011;37259;49.972;19.850;2024-01-30T03:39:28;30.6;;;19.6;;
51194;SDS011;37259;49.972;19.850;2024-01-30T03:40:28;30.6;;;19.6;;
51194;SDS011;37259;49.972;19.850;2024-01-30T03:41:28;30.6;;;19.6;;
51194;SDS011;37259;49.972;19.850;2024-01-30T03:42:28;30.6;;;19.6;;
51194;SDS011;37259;49.972;19.850;2024-01-30T03:43:28;30.6;;;19.6;;
51194;SDS011;37259;49.972;19.850;2024-01-30T03:44:28;30.6;;;19.6;;
51194;SDS011;37259;49.972;19.850;2024-01-30T03:45:28;30.6;;;19.6;;
51194;SDS011;37259;49.972;19.850;2024-01-30T03:46:28;30.6;;;19.6;;
51194;SDS011;37259;49.972;19.850;2024-01-30T03:47:28;30.6;;;19.6;;
51194;SDS011;37259;49.972;19.850;2024-01-30T03:48:28;30.6;;;19.6;;
51194;SDS011;37259;49.972;19.850;2024-01-30T03:49:28;30.6;;;19.6;;
51194;SDS011;37259;49.972;19.850;2024-01-30T03:50:28;30.6;;;19.6;;
51194;SDS011;37259;49.972;19.850;2024-01-30T03:51:28;30.6;;;19.6;;
51194;SDS011;37259;49.972;19.850;2024-01-30T03:52:28;30.6;;;19.6;;
51194;SDS011;37259;49.972;19.850;2024-01-30T03:53:28;30.6;;;19.6;;
51194;SDS011;37259;49.972;19.850;2024-01-30T03:54:28;30.6;;;19.6;;
51194;SDS011;37259;49.972;19.850;2024-01-30T03:55:28;30.6;;;19.6;;
51194;SDS011;37259;49.972;19.850;2024-01-30T03:56:28;30.6;;;19.6;;
51194;SDS011;37259;49.972;19.850;2024-01-30T03:57:28;30.6;;;19.6;;
51194;SDS011;37259;49.972;19.850;2024-01-30T03:58:28;30.6;;;19.6;;
51194;SDS011;37259;49.972;19.850;2024-01-30T03:59:28;30.6;;;19.6;;
51194;SDS011;37259;49.972;19.850;2024-01-30T04:00:28;30.6;;;19.6;;
51194;SDS011;37259;49.972;19.850;2024-01-30T04:01:28;30.6;;;19.6;;
51194;SDS011;37259;49.972;19.850;2024-01-30T04:02:28;30.6;;;19.6;;
51194;SDS011;37259;49.972;19.850;2024-01-30T04:03:28;30.6;;;19.6;;
51194;SDS011;37259;49.972;19.850;2024-01-30T04:04:28;33.5;;;19.7;;
51194;SDS011;37259;49.972;19.850;2024-01-30T04:05:28;33.5;;;19.7;;
51194;SDS011;37259;49.972;19.850;2024-01-30T04:06:28;33.5;;;19.7;;
51194;SDS011;37259;49.972;19.850;2024-01-30T04:07:28;33.5;;;19.7;;
51194;SDS011;37259;49.972;19.850;2024-01-30T04:08:28;33.5;;;19.7;;
51194;SDS011;37259;49.972;19.850;2024-01-30T04:09:28;33.5;;;19.7;;
51194;SDS011;37259;49.972;19.850;2024-01-30T04:10:28;33.5;;;19.7;;
51194;SDS011;37259;49.972;19.850;2024-01-30T04:11:28;33.5;;;19.7;;
51194;SDS011;37259;49.972;19.850;2024-01-30T04:12:28;33.5;;;19.7;;
51194;SDS011;37259;49.972;19.850;2024-01-30T04:13:28;33.5;;;19.7;;
51194;SDS011;37259;49.972;19.850;2024-01-30T04:14:28;33.5;;;19.7;;
51194;SDS011;37259;49.972;19.850;2024-01-30T04:15:28;33.5;;;19.7;;
51194;SDS011;37259;49.972;19.850;2024-01-30T04:16:28;33.5;;;19.7;;
51194;SDS011;37259;49.972;19.850;2024-01-30T04:17:28;33.5;;;19.7;;
51194;SDS011;37259;49.972;19.850;2024-01-30T04:18:28;33.5;;;19.7;;
51194;SDS011;37259;49.972;19.850;2024-01-30T04:19:28;33.5;;;19.7;;
51194;SDS011;37259;49.972;19.850;2024-01-30T04:20:28;33.5;;;19.7;;
51194;SDS011;37259;49.972;19.850;2024-01-30T04:21:28;33.5;;;19.7;;
51194;SDS011;37259;49.972;19.850;2024-01-30T04:22:28;33.5;;;19.7;;
51194;SDS011;37259;49.972;19.850;2024-01-30T04:23:28;33.5;;;19.7;;
51194;SDS011;37259;49.972;19.850;2024-01-30T04:24:28;33.5;;;19.7;;
51194;SDS011;37259;49.972;19.850;2024-01-30T04:25:28;33.5;;;19.7;;
51194;SDS011;37259;49.972;19.850;2024-01-30T04:26:28;33.5;;;19.7;;
51194;SDS011;37259;49.972;19.850;2024-01-30T04:27:28;33.5;;;19.7;;
51194;SDS011;37259;49.972;19.850;2024-01-30T04:28:28;33.5;;;19.7;;
51194;SDS011;37259;49.972;19.850;2024-01-30T04:29:28;33.5;;;19.7;;
51194;SDS011;37259;49.972;19.850;2024-01-30T04:30:28;33.5;;;19.7;;
51194;SDS011;37259;49.972;19.850;2024-01-30T04:31:28;33.5;;;19.7;;
51194;SDS011;37259;49.972;19.850;2024-01-30T04:32:28;33.5;;;19.7;;
51194;SDS011;37259;49.972;19.850;2024-01-30T04:33:28;33.5;;;19.7;;
51194;SDS011;37259;49.972;19.850;2024-01-30T04:34:28;31.7;;;17.4;;
51194;SDS011;37259;49.972;19.850;2024-01-30T04:35:28;31.7;;;17.4;;
51194;SDS011;37259;49.972;19.850;2024-01-30T04:36:28;31.7;;;17.4;;
51194;SDS011;37259;49.972;19.850;2024-01-30T04:37:29;31.7;;;17.4;;
51194;SDS011;37259;49.972;19.850;2024-01-30T04:38:28;31.7;;;17.4;;
51194;SDS011;37259;49.972;19.850;2024-01-30T04:39:28;31.7;;;17.4;;
51194;SDS011;37259;49.972;19.850;2024-01-30T04:40:28;31.7;;;17.4;;
51194;SDS011;37259;49.972;19.850;2024-01-30T04:41:28;31.7;;;17.4;;
51194;SDS011;37259;49.972;19.850;2024-01-30T04:42:28;31.7;;;17.4;;
51194;SDS011;37259;49.972;19.850;2024-01-30T04:43:28;31.7;;;17.4;;
51194;SDS011;37259;49.972;19.850;2024-01-30T04:44:28;31.7;;;17.4;;
51194;SDS011;37259;49.972;19.850;2024-01-30T04:45:28;31.7;;;17.4;;
51194;SDS011;37259;49.972;19.850;2024-01-30T04:46:28;31.7;;;17.4;;
51194;SDS011;37259;49.972;19.850;2024-01-30T04:47:28;31.7;;;17.4;;
51194;SDS011;37259;49.972;19.850;2024-01-30T04:48:28;31.7;;;17.4;;
51194;SDS011;37259;49.972;19.850;2024-01-30T04:49:28;31.7;;;17.4;;
51194;SDS011;37259;49.972;19.850;2024-01-30T04:50:28;31.7;;;17.4;;
51194;SDS011;37259;49.972;19.850;2024-01-30T04:51:28;31.7;;;17.4;;
51194;SDS011;37259;49.972;19.850;2024-01-30T04:52:28;31.7;;;17.4;;
51194;SDS011;37259;49.972;19.850;2024-01-30T04:53:29;31.7;;;17.4;;
51194;SDS011;37259;49.972;19.850;2024-01-30T04:54:28;31.7;;;17.4;;
51194;SDS011;37259;49.972;19.850;2024-01-30T04:55:28;31.7;;;17.4;;
51194;SDS011;37259;49.972;19.850;2024-01-30T04:56:28;31.7;;;17.4;;
51194;SDS011;37259;49.972;19.850;2024-01-30T04:57:28;31.7;;;17.4;;
51194;SDS011;37259;49.972;19.850;2024-01-30T04:58:28;31.7;;;17.4;;
51194;SDS011;37259;49.972;19.850;2024-01-30T04:59:28;31.7;;;17.4;;
51194;SDS011;37259;49.972;19.850;2024-01-30T05:00:28;31.7;;;17.4;;
51194;SDS011;37259;49.972;19.850;2024-01-30T05:01:28;31.7;;;17.4;;
51194;SDS011;37259;49.972;19.850;2024-01-30T05:02:28;31.7;;;17.4;;
51194;SDS011;37259;49.972;19.850;2024-01-30T05:03:28;31.7;;;17.4;;
51194;SDS011;37259;49.972;19.850;2024-01-30T05:04:28;27.4;;;15.7;;
51194;SDS011;37259;49.972;19.850;2024-01-30T05:05:28;27.4;;;15.7;;
51194;SDS011;37259;49.972;19.850;2024-01-30T05:06:28;27.4;;;15.7;;
51194;SDS011;37259;49.972;19.850;2024-01-30T05:07:28;27.4;;;15.7;;
51194;SDS011;37259;49.972;19.850;2024-01-30T05:08:28;27.4;;;15.7;;
51194;SDS011;37259;49.972;19.850;2024-01-30T05:09:28;27.4;;;15.7;;
51194;SDS011;37259;49.972;19.850;2024-01-30T05:10:28;27.4;;;15.7;;
51194;SDS011;37259;49.972;19.850;2024-01-30T05:11:28;27.4;;;15.7;;
51194;SDS011;37259;49.972;19.850;2024-01-30T05:12:28;27.4;;;15.7;;
51194;SDS011;37259;49.972;19.850;2024-01-30T05:13:28;27.4;;;15.7;;
51194;SDS011;37259;49.972;19.850;2024-01-30T05:14:28;27.4;;;15.7;;
51194;SDS011;37259;49.972;19.850;2024-01-30T05:15:28;27.4;;;15.7;;
51194;SDS011;37259;49.972;19.850;2024-01-30T05:16:28;27.4;;;15.7;;
51194;SDS011;37259;49.972;19.850;2024-01-30T05:17:28;27.4;;;15.7;;
51194;SDS011;37259;49.972;19.850;2024-01-30T05:18:28;27.4;;;15.7;;
51194;SDS011;37259;49.972;19.850;2024-01-30T05:19:28;27.4;;;15.7;;
51194;SDS011;37259;49.972;19.850;2024-01-30T05:20:28;27.4;;;15.7;;
51194;SDS011;37259;49.972;19.850;2024-01-30T05:21:28;27.4;;;15.7;;
51194;SDS011;37259;49.972;19.850;2024-01-30T05:22:28;27.4;;;15.7;;
51194;SDS011;37259;49.972;19.850;2024-01-30T05:23:28;27.4;;;15.7;;
51194;SDS011;37259;49.972;19.850;2024-01-30T05:24:28;27.4;;;15.7;;
51194;SDS011;37259;49.972;19.850;2024-01-30T05:25:28;27.4;;;15.7;;
51194;SDS011;37259;49.972;19.850;2024-01-30T05:26:28;27.4;;;15.7;;
51194;SDS011;37259;49.972;19.850;2024-01-30T05:27:28;27.4;;;15.7;;
51194;SDS011;37259;49.972;19.850;2024-01-30T05:28:28;27.4;;;15.7;;
51194;SDS011;37259;49.972;19.850;2024-01-30T05:29:28;27.4;;;15.7;;
51194;SDS011;37259;49.972;19.850;2024-01-30T05:30:28;27.4;;;15.7;;
51194;SDS011;37259;49.972;19.850;2024-01-30T05:31:28;27.4;;;15.7;;
51194;SDS011;37259;49.972;19.850;2024-01-30T05:32:28;27.4;;;15.7;;
51194;SDS011;37259;49.972;19.850;2024-01-30T05:33:28;27.4;;;15.7;;
51194;SDS011;37259;49.972;19.850;2024-01-30T05:34:28;28.6;;;16.5;;
51194;SDS011;37259;49.972;19.850;2024-01-30T05:35:28;28.6;;;16.5;;
51194;SDS011;37259;49.972;19.850;2024-01-30T05:36:28;28.6;;;16.5;;
51194;SDS011;37259;49.972;19.850;2024-01-30T05:37:28;28.6;;;16.5;;
51194;SDS011;37259;49.972;19.850;2024-01-30T05:38:29;28.6;;;16.5;;
51194;SDS011;37259;49.972;19.850;2024-01-30T05:39:28;28.6;;;16.5;;
51194;SDS011;37259;49.972;19.850;2024-01-30T05:40:28;28.6;;;16.5;;
51194;SDS011;37259;49.972;19.850;2024-01-30T05:41:28;28.6;;;16.5;;
51194;SDS011;37259;49.972;19.850;2024-01-30T05:42:28;28.6;;;16.5;;
51194;SDS011;37259;49.972;19.850;2024-01-30T05:43:28;28.6;;;16.5;;
51194;SDS011;37259;49.972;19.850;2024-01-30T05:44:28;28.6;;;16.5;;
51194;SDS011;37259;49.972;19.850;2024-01-30T05:45:28;28.6;;;16.5;;
51194;SDS011;37259;49.972;19.850;2024-01-30T05:46:28;28.6;;;16.5;;
51194;SDS011;37259;49.972;19.850;2024-01-30T05:47:28;28.6;;;16.5;;
51194;SDS011;37259;49.972;19.850;2024-01-30T05:48:28;28.6;;;16.5;;
51194;SDS011;37259;49.972;19.850;2024-01-30T05:49:28;28.6;;;16.5;;
51194;SDS011;37259;49.972;19.850;2024-01-30T05:50:28;28.6;;;16.5;;
51194;SDS011;37259;49.972;19.850;2024-01-30T05:51:28;28.6;;;16.5;;
51194;SDS011;37259;49.972;19.850;2024-01-30T05:52:28;28.6;;;16.5;;
51194;SDS011;37259;49.972;19.850;2024-01-30T05:53:28;28.6;;;16.5;;
51194;SDS011;37259;49.972;19.850;2024-01-30T05:54:28;28.6;;;16.5;;
51194;SDS011;37259;49.972;19.850;2024-01-30T05:55:28;28.6;;;16.5;;